00:53
Airports
History
Links
Donate
Help keep this website running!
PayPal
Bitcoin
This page is community maintained. The information is intended for PC simulator navigation or reference.
Always use approved charts for navigation.
7U9
Bangart Field
Bangart Field (7U9)
Roberts, Montana, United States (59070)
4
Lat/Lng:45° 24' 18.8" N / 109° 7' 47.55" W
45.405223 / -109.129876
Elevation:4320'ft / 1317mMSL
ID / ICAO:7U9
Runways:1
Longest:17-35
Gravel 998m / 3,274ft
Nearby Weather23:53 GMT 2018-02-17
Nearby weather at KBIL, Billings Logan Intl located 39.7 nautical miles from 7U9
Altimeter: 29.63
Visibility: 10.0 statute miles
Wind: 10 knots (from 030°)
Temp: -7°c / 19°f
Humidity: 92.5%

METAR: KBIL 172353Z 03010KT 10SM FEW004 OVC070 M07/M08 A2963 RMK AO2 SLP077 4/010 60000 T10671078 11050 21067 58035

(Powered by phpweather)
Nearby VORs <50NM
Nearby NDBs
Runway 17 / 35
Dimensions:997.8 x 12.2m 3274' x 40'ft
Surface:Gravel
Runway 17 [A]Runway 35 [B]
Heading:185°TH 005°TH
Lat:
Lng:
45° 24' 35.03"N
109° 7' 45.53"W
45° 24' 2.57"N
109° 7' 49.58"W
User Notes and Comments
45° 24' 18.8" N / 109° 7' 47.55" W
Distance To
Airport ID:
Nearby Airports
(U) Bridger Muni 12.6 NM
6S1 SE 128°
(U) Woltermann Memorial 16.4 NM
6S3 NNW 341°
(U) Red Lodge 16.5 NM
KRED SSW 203°
4 Mackay Ranch 21.2 NM
MT10 WSW 253°
(U) Laurel Muni 27.4 NM
6S8 NE 40°
(C) Billings Logan Intl 39.7 NM
KBIL ( WX ) NE 45°
(U) Powell Muni 40.6 NM
KPOY SSE 156°
VFR Chart
Flight Planning at SkyVector.com